Latest Coastal Weather Observations for Horn Island

IDQ60701

Issued at 10:31 am EST Friday 31 March 2017 (issued every 10 minutes, with the page automatically refreshed every 10 minutes)

About coastal observations | Map of coastal stations | Coastal observations for QLD | Marine services | Other Formats
Station Details ID: 027058 Name: HORN ISLAND Lat: -10.58 Lon: 142.29 Height: 4.0 m
Data from the previous 72 hours. | See also: Recent months at Horn Island
Date/Time
EST
Temp
°C
Wind Pressure Rain since
9am
mm
Weather Cloud Vis
km
Sea
Height
m
Swell
Dir  Spd
kts
Gust
kts
hPa Trend Height
m
Period
s
Dir
31/10:30am 28.8 NW 8 11 1011.5 - 0.0 - Partly cloudy 10 - - - -
31/10:00am 28.2 NW 8 11 1012.0 - 0.0 - Partly cloudy 10 - - - -
31/09:30am 27.6 NW 8 12 1011.6 - 0.0 - Partly cloudy 10 - - - -
31/09:00am 26.6 NNW 9 11 1011.5 - 1.6 - Cloudy 10 - - - -
31/08:52am 26.4 NNW 10 13 1011.4 - 1.6 - Partly cloudy 10 - - - -
31/08:30am 26.8 NNW 12 16 1011.3 - 1.0 - Partly cloudy 10 - - - -
31/08:20am 27.0 NNW 11 17 1011.1 - 1.0 - Partly cloudy 10 - - - -
31/08:00am 27.7 NNW 4 12 1010.7 - 1.0 - Partly cloudy 10 - - - -
31/07:30am 27.1 N 5 7 1010.3 - 0.8 - Partly cloudy 10 - - - -
31/07:00am 26.2 SSW 3 4 1010.0 - 0.8 - Partly cloudy 10 - - - -
31/06:30am 26.1 SSW 3 4 1009.6 - 0.8 - - 10 - - - -
31/06:00am 26.1 SW 4 4 1009.4 - 0.8 - Mostly clear 10 - - - -
31/05:30am 26.3 CALM 0 0 1009.5 - 0.8 - Partly cloudy 10 - - - -
31/05:00am 26.1 W 3 4 1009.2 - 0.8 - Partly cloudy 10 - - - -
31/04:30am 25.9 CALM 0 0 1008.8 - 0.8 - Partly cloudy 10 - - - -
31/04:00am 26.1 CALM 0 0 1009.0 - 0.8 - Partly cloudy 10 - - - -
31/03:30am 25.8 CALM 0 0 1008.9 - 0.8 - - 10 - - - -
31/03:00am 26.0 CALM 0 0 1009.1 - 0.8 - - 10 - - - -
31/02:30am 26.0 CALM 0 0 1009.4 - 0.8 - - 10 - - - -
31/02:00am 26.1 CALM 0 0 1009.6 - 0.8 - - 10 - - - -
31/01:30am 26.2 CALM 0 0 1009.9 - 0.8 - - 10 - - - -
31/01:00am 26.3 S 3 3 1010.5 - 0.8 - - 10 - - - -
31/12:30am 26.3 S 2 4 1010.9 - 0.8 - - 10 - - - -
31/12:00am 26.4 CALM 0 0 1011.3 - 0.8 - Mostly clear 10 - - - -
 
Date/Time
EST
Temp
°C
Wind Pressure Rain since
9am
mm
Weather Cloud Vis
km
Sea
Height
m
Swell
Dir  Spd
kts
Gust
kts
hPa Trend Height
m
Period
s
Dir
30/11:30pm 26.6 CALM 0 0 1011.7 - 0.8 - Partly cloudy 10 - - - -
30/11:00pm 26.9 S 1 3 1011.9 - 0.8 - - 10 - - - -
30/10:30pm 26.8 S 4 4 1011.8 - 0.8 - - 10 - - - -
30/10:00pm 26.9 CALM 0 0 1011.4 - 0.8 - - 10 - - - -
30/09:30pm 27.2 SW 3 3 1011.0 - 0.8 - - 10 - - - -
30/09:00pm 27.3 WSW 3 4 1010.6 - 0.8 - - 10 - - - -
30/08:30pm 27.3 W 4 5 1009.8 - 0.8 - - 10 - - - -
30/08:00pm 27.5 WNW 4 5 1009.5 - 0.8 - - 10 - - - -
30/07:30pm 27.9 WNW 4 4 1009.2 - 0.8 - - 10 - - - -
30/07:00pm 28.0 W 4 5 1008.7 - 0.8 - - 10 - - - -
30/06:30pm 28.4 WNW 5 7 1008.3 - 0.8 - - 10 - - - -
30/06:00pm 28.9 NW 7 10 1008.2 - 0.8 - - 10 - - - -
30/05:30pm 29.8 NW 7 10 1008.0 - 0.8 - - 10 - - - -
30/05:00pm 30.1 NW 8 11 1007.7 - 0.8 - - 10 - - - -
30/04:30pm 30.1 NW 8 11 1007.6 - 0.8 - - 10 - - - -
30/04:00pm 30.4 NW 8 12 1007.4 - 0.8 - - 10 - - - -
30/03:30pm 30.0 NW 10 13 1007.6 - 0.8 - - 10 - - - -
30/03:00pm 30.7 NNW 9 13 1007.8 - 0.8 - - 10 - - - -
30/02:30pm 30.3 NNW 9 12 1008.3 - 0.8 - - 10 - - - -
30/02:00pm 30.6 NW 9 14 1008.8 - 0.8 - - 10 - - - -
30/01:30pm 30.0 NW 11 15 1009.2 - 0.8 - Partly cloudy 10 - - - -
30/01:00pm 29.9 WNW 10 14 1009.6 - 0.8 - Partly cloudy 10 - - - -
30/12:30pm 29.5 WNW 11 15 1010.4 - 0.8 - Partly cloudy 10 - - - -
30/12:00pm 30.2 NNW 12 15 1010.5 - 0.8 - - 10 - - - -
30/11:30am 29.6 NNW 10 14 1011.2 - 0.8 - Partly cloudy 10 - - - -
30/11:00am 29.0 NNW 7 11 1011.6 - 0.4 - Partly cloudy 10 - - - -
30/10:30am 29.7 N 8 11 1011.8 - 0.0 - - 10 - - - -
30/10:00am 29.3 N 9 12 1012.0 - 0.0 - - 10 - - - -
30/09:30am 29.0 N 10 14 1011.9 - 0.0 - Partly cloudy 10 - - - -
30/09:00am 29.8 NNW 8 11 1011.8 - 3.2 - Partly cloudy 10 - - - -
30/08:30am 29.6 NNW 9 12 1011.4 - 3.2 - Partly cloudy 10 - - - -
30/08:00am 28.8 NNW 8 11 1011.1 - 3.2 - - 10 - - - -
30/07:30am 28.4 NNW 7 10 1010.8 - 3.2 - Partly cloudy 10 - - - -
30/07:00am 28.1 NNW 8 11 1010.5 - 3.2 - Partly cloudy 10 - - - -
30/06:30am 28.0 NNW 9 14 1010.1 - 3.2 - Partly cloudy 10 - - - -
30/06:00am 28.0 NNW 7 11 1009.8 - 3.2 - Mostly cloudy 10 - - - -
30/05:30am 28.0 NNW 8 11 1009.3 - 3.2 - Partly cloudy 10 - - - -
30/05:00am 28.0 N 8 12 1008.9 - 3.2 - Partly cloudy 10 - - - -
30/04:30am 28.1 N 8 11 1008.8 - 3.2 - Partly cloudy 10 - - - -
30/04:00am 28.0 NW 8 13 1008.8 - 3.2 - Partly cloudy 10 - - - -
30/03:30am 27.9 NNW 9 13 1008.9 - 3.2 - Partly cloudy 10 - - - -
30/03:00am 27.3 WNW 5 7 1008.9 - 3.2 - Mostly clear 10 - - - -
30/02:30am 26.9 NW 6 11 1009.0 - 3.2 - Partly cloudy 10 - - - -
30/02:00am 26.4 CALM 0 0 1009.4 - 3.2 - Partly cloudy 10 - - - -
30/01:30am 26.5 WSW 2 5 1009.4 - 3.2 - Partly cloudy 10 - - - -
30/01:00am 26.3 CALM 0 0 1009.7 - 3.2 - Partly cloudy 10 - - - -
30/12:30am 26.0 SSW 4 5 1009.7 - 3.2 - Partly cloudy 10 - - - -
30/12:00am 25.9 CALM 0 0 1009.9 - 3.2 - Cloudy 10 - - - -
 
Date/Time
EST
Temp
°C
Wind Pressure Rain since
9am
mm
Weather Cloud Vis
km
Sea
Height
m
Swell
Dir  Spd
kts
Gust
kts
hPa Trend Height
m
Period
s
Dir
29/11:30pm 25.7 S 6 8 1010.2 - 3.2 - Partly cloudy 10 - - - -
29/11:00pm 25.7 SW 6 7 1010.4 - 3.0 - Partly cloudy 10 - - - -
29/10:39pm 25.7 S 4 6 1010.4 - 2.8 - Partly cloudy 10 - - - -
29/10:30pm 25.6 S 4 6 1010.3 - 2.8 - Partly cloudy 6 - - - -
29/10:02pm 26.5 WNW 8 11 1010.4 - 0.4 - Partly cloudy 5 - - - -
29/10:00pm 26.6 WNW 8 11 1010.4 - 0.2 - Partly cloudy 6 - - - -
29/09:30pm 27.5 W 6 9 1010.0 - 0.2 - Partly cloudy 10 - - - -
29/09:00pm 28.3 NW 7 12 1009.6 - 0.2 - Mostly clear 10 - - - -
29/08:30pm 28.2 WNW 7 11 1009.3 - 0.2 - Partly cloudy 10 - - - -
29/08:00pm 28.0 WNW 7 11 1008.9 - 0.2 - - 10 - - - -
29/07:30pm 28.0 WNW 7 10 1008.5 - 0.2 - - 10 - - - -
29/07:00pm 28.1 WNW 8 12 1008.1 - 0.2 - - 10 - - - -
29/06:30pm 28.0 WNW 7 11 1007.7 - 0.2 - Partly cloudy 10 - - - -
29/06:00pm 28.3 WNW 9 15 1007.4 - 0.2 - Partly cloudy 10 - - - -
29/05:30pm 28.7 NW 8 13 1006.8 - 0.2 - Partly cloudy 10 - - - -
29/05:00pm 28.9 WNW 11 16 1006.4 - 0.2 - Partly cloudy 10 - - - -
29/04:30pm 28.7 NW 12 19 1006.4 - 0.2 - Partly cloudy 10 - - - -
29/04:00pm 28.9 NW 12 19 1006.5 - 0.2 - Partly cloudy 10 - - - -
29/03:30pm 29.7 NW 11 17 1006.7 - 0.2 - Partly cloudy 10 - - - -
29/03:00pm 27.8 NW 8 15 1006.9 - 0.2 - Cloudy 7 - - - -
29/02:30pm 28.9 NNW 12 17 1007.0 - 0.2 - Partly cloudy 10 - - - -
29/02:00pm 29.1 NNW 11 14 1007.3 - 0.2 - Partly cloudy 10 - - - -
29/01:30pm 29.2 NNW 10 14 1007.3 - 0.2 - Partly cloudy 10 - - - -
29/01:00pm 29.3 NNW 12 17 1007.9 - 0.2 - Partly cloudy 10 - - - -
29/12:30pm 29.7 NNW 12 16 1008.3 - 0.0 - Partly cloudy 10 - - - -
29/12:00pm 29.4 NNW 12 17 1008.9 - 0.0 - Mostly cloudy 10 - - - -
29/11:30am 29.4 NNW 11 16 1009.5 - 0.0 - Partly cloudy 10 - - - -
29/11:00am 29.6 NNW 10 15 1009.7 - 0.0 - Partly cloudy 10 - - - -
29/10:30am 29.0 NW 10 15 1010.0 - 0.0 - Partly cloudy 10 - - - -
29/10:00am 29.4 NNW 10 15 1010.1 - 0.0 - Partly cloudy 10 - - - -
29/09:30am 28.9 NNW 10 14 1009.8 - 0.0 - Partly cloudy 10 - - - -
29/09:00am 28.1 NNW 10 15 1009.6 - 6.0 - Cloudy 10 - - - -
29/08:30am 28.2 NNW 12 15 1009.3 - 6.0 - Partly cloudy 10 - - - -
29/08:00am 28.0 NNW 11 17 1008.9 - 6.0 - Partly cloudy 10 - - - -
29/07:30am 27.9 NNW 11 16 1008.6 - 6.0 - Partly cloudy 10 - - - -
29/07:00am 27.5 NW 9 13 1008.1 - 6.0 - Partly cloudy 10 - - - -
29/06:30am 27.3 NW 9 14 1007.8 - 6.0 - Partly cloudy 10 - - - -
29/06:10am 27.0 NW 9 13 1007.6 - 6.0 - Partly cloudy 10 - - - -
29/06:00am 27.0 NW 9 14 1007.5 - 6.0 - Partly cloudy 10 - - - -
29/05:37am 27.1 NNW 11 14 1007.3 - 6.0 - Partly cloudy 10 - - - -
29/05:30am 27.0 NNW 10 14 1007.3 - 6.0 - Partly cloudy 10 - - - -
29/05:00am 27.1 NNW 12 17 1007.3 - 6.0 - Partly cloudy 10 - - - -
29/04:30am 26.9 NW 11 15 1007.1 - 6.0 - Partly cloudy 10 - - - -
29/04:00am 27.2 NW 14 21 1007.0 - 6.0 - Partly cloudy 10 - - - -
29/03:58am 27.2 NW 14 22 1007.0 - 6.0 - Partly cloudy 10 - - - -
29/03:32am 27.3 N 16 22 1007.0 - 6.0 - Partly cloudy 10 - - - -
29/03:31am 27.3 N 16 22 1007.0 - 6.0 - Partly cloudy 10 - - - -
29/03:30am 27.2 N 15 22 1007.0 - 6.0 - Partly cloudy 10 - - - -
29/03:00am 27.4 NNW 12 17 1007.2 - 6.0 - Cloudy 10 - - - -
29/02:36am 27.2 NW 11 19 1007.4 - 5.8 - Partly cloudy 7 - - - -
29/02:30am 27.7 NNW 11 19 1007.3 - 5.8 - Partly cloudy 10 - - - -
29/02:00am 27.6 NNW 10 15 1007.2 - 5.8 - Partly cloudy 10 - - - -
29/01:30am 26.9 WNW 6 9 1007.6 - 5.8 - Partly cloudy 10 - - - -
29/01:00am 25.9 W 4 6 1008.2 - 5.8 - Partly cloudy 10 - - - -
29/12:30am 25.9 CALM 0 3 1008.6 - 5.8 - Partly cloudy 10 - - - -
29/12:00am 25.9 WSW 2 4 1008.7 - 5.8 - - 10 - - - -
 
Date/Time
EST
Temp
°C
Wind Pressure Rain since
9am
mm
Weather Cloud Vis
km
Sea
Height
m
Swell
Dir  Spd
kts
Gust
kts
hPa Trend Height
m
Period
s
Dir
28/11:30pm 26.1 SW 4 5 1008.9 - 5.8 - - 10 - - - -
28/11:00pm 26.5 W 6 8 1009.0 - 5.8 - - 10 - - - -
28/10:30pm 26.5 W 6 9 1008.9 - 5.8 - - 10 - - - -
28/10:00pm 26.4 W 6 10 1009.0 - 5.6 - - 10 - - - -
28/09:30pm 26.6 WNW 9 13 1008.6 - 5.6 - - 10 - - - -
28/09:00pm 26.6 NW 8 13 1008.3 - 5.6 - Mostly cloudy 10 - - - -
28/08:30pm 26.2 WNW 6 7 1008.0 - 5.6 - Partly cloudy 10 - - - -
28/08:00pm 26.2 WNW 3 5 1007.7 - 5.6 - Cloudy 10 - - - -
28/07:30pm 26.0 WNW 5 6 1007.4 - 5.6 - Partly cloudy 10 - - - -
28/07:13pm 25.8 NW 5 7 1007.3 - 5.6 - Partly cloudy 10 - - - -
28/07:00pm 25.9 W 7 14 1007.3 - 5.6 - Partly cloudy 3 - - - -
28/06:50pm 26.1 WNW 5 9 1007.3 - 4.8 - Cloudy 5 - - - -
28/06:31pm 26.0 WNW 5 7 1006.7 - 4.2 - Partly cloudy 10 - - - -
28/06:30pm 26.0 WNW 5 7 1006.7 - 4.2 - Partly cloudy 10 - - - -
28/06:00pm 25.9 W 6 9 1006.9 - 4.2 - Cloudy 10 - - - -
28/05:30pm 25.8 W 9 14 1007.0 - 4.2 - Partly cloudy 9 - - - -
28/05:19pm 25.8 W 9 15 1007.0 - 4.2 - Partly cloudy 10 - - - -
28/05:00pm 26.3 W 7 15 1006.8 - 4.0 - Partly cloudy 9 - - - -
28/04:48pm 27.0 W 3 5 1006.5 - 3.6 - Partly cloudy 10 - - - -
28/04:30pm 26.3 S 6 8 1006.6 - 3.6 - Partly cloudy 10 - - - -
28/04:15pm 25.9 S 7 8 1006.6 - 3.6 - Partly cloudy 10 - - - -
28/04:07pm 26.2 S 7 9 1006.6 - 3.6 - Partly cloudy 9 - - - -
28/04:00pm 26.0 SSW 6 9 1006.7 - 3.6 - Partly cloudy 3 - - - -
28/03:53pm 25.8 SW 7 9 1006.9 - 2.8 - Partly cloudy 5 - - - -
28/03:45pm 26.0 SW 9 11 1006.9 - 2.0 - Partly cloudy 10 - - - -
28/03:30pm 29.0 NW 9 15 1006.5 - 2.0 - Partly cloudy 10 - - - -
28/03:00pm 28.9 NW 12 19 1006.3 - 2.0 - Cloudy 10 - - - -
28/02:30pm 28.3 WNW 12 17 1006.6 - 2.0 - Partly cloudy 10 - - - -
28/02:00pm 29.2 WNW 11 16 1006.7 - 2.0 - Partly cloudy 10 - - - -
28/01:30pm 28.5 NW 11 16 1007.1 - 2.0 - Partly cloudy 10 - - - -
28/01:00pm 28.6 NW 11 16 1007.4 - 2.0 - Partly cloudy 10 - - - -
28/12:30pm 27.7 NNW 11 16 1007.9 - 2.0 - Partly cloudy 10 - - - -
28/12:00pm 27.1 NW 11 16 1008.7 - 2.0 - Cloudy 10 - - - -
28/11:57am 26.9 NW 10 15 1008.7 - 2.0 - Partly cloudy 10 - - - -
28/11:40am 26.6 W 7 10 1009.3 - 1.8 - Partly cloudy 5 - - - -
28/11:36am 26.8 WNW 8 12 1009.3 - 1.6 - Partly cloudy 8 - - - -
28/11:30am 27.0 NW 8 12 1009.3 - 1.4 - Partly cloudy 10 - - - -
28/11:29am 27.0 NW 8 12 1009.3 - 1.4 - Partly cloudy 10 - - - -
28/11:26am 27.0 NW 7 11 1009.3 - 1.4 - Partly cloudy 10 - - - -
28/11:15am 26.8 W 6 11 1009.6 - 1.2 - Partly cloudy 5 - - - -
28/11:13am 26.9 W 6 13 1009.6 - 1.0 - Partly cloudy 5 - - - -
28/11:00am 27.0 NW 14 18 1009.6 - 0.4 - Partly cloudy 10 - - - -
28/10:55am 27.0 NW 14 20 1009.5 - 0.4 - Partly cloudy 10 - - - -

Other Formats:

Comma delimited format used in spreadsheet applications
http://www.bom.gov.au/fwo/IDQ60701/IDQ60701.94174.axf

JavaScript Object Notation format (JSON) in row-major order
http://www.bom.gov.au/fwo/IDQ60701/IDQ60701.94174.json